Time;durP1;ratioP1;P1;durP2;ratioP2;P2;SDS_P1;SDS_P2;PMS_P1;PMS_P2;Temp;Humidity;BMP_temperature;BMP_pressure;BME280_temperature;BME280_humidity;BME280_pressure;Samples;Min_cycle;Max_cycle;Signal;HPM_P1;HPM_P2
2021/07/26 00:00:02;;;;;;;16.48;14.25;;;;;;;24.13;64.76;100564.47;691319;28;20859;-62
2021/07/26 00:00:33;;;;;;;16.48;14.05;;;;;;;24.10;64.70;100560.31;689684;28;71178;-63
2021/07/26 00:00:54;;;;;;;15.93;14.15;;;;;;;24.10;64.51;100560.31;691190;28;22397;-62
2021/07/26 00:01:15;;;;;;;17.00;14.70;;;;;;;24.09;64.77;100561.41;690245;28;22517;-62
2021/07/26 00:01:37;;;;;;;16.73;14.23;;;;;;;24.09;64.70;100566.09;691442;28;20640;-62
2021/07/26 00:01:58;;;;;;;15.68;13.57;;;;;;;24.08;64.53;100559.75;690492;28;44531;-62
2021/07/26 00:02:19;;;;;;;18.10;14.43;;;;;;;24.07;64.65;100560.84;690548;28;22494;-62
2021/07/26 00:02:40;;;;;;;16.70;14.30;;;;;;;24.08;64.64;100561.69;691434;28;21504;-62
2021/07/26 00:03:01;;;;;;;16.50;13.93;;;;;;;24.07;64.94;100551.75;691194;28;22404;-62
2021/07/26 00:03:24;;;;;;;14.95;13.35;;;;;;;24.07;64.57;100562.78;690927;28;21514;-63
2021/07/26 00:03:45;;;;;;;16.73;14.48;;;;;;;24.07;64.89;100558.09;690401;28;46571;-62
2021/07/26 00:04:06;;;;;;;18.15;13.93;;;;;;;24.07;65.00;100563.59;691083;28;22381;-62
2021/07/26 00:04:27;;;;;;;18.30;13.82;;;;;;;24.08;64.89;100557.00;691427;28;22456;-63
2021/07/26 00:04:48;;;;;;;17.48;13.88;;;;;;;24.07;64.75;100554.50;691262;28;21440;-63
2021/07/26 00:05:11;;;;;;;17.23;14.55;;;;;;;24.08;64.38;100568.03;690917;28;45231;-63
2021/07/26 00:05:32;;;;;;;17.80;14.30;;;;;;;24.06;64.70;100556.44;690468;28;47892;-63
2021/07/26 00:05:54;;;;;;;15.48;13.35;;;;;;;24.08;64.41;100559.75;691443;28;23384;-62
2021/07/26 00:06:17;;;;;;;15.30;13.68;;;;;;;24.07;64.70;100557.25;689868;28;47172;-62
2021/07/26 00:06:39;;;;;;;18.63;13.52;;;;;;;24.07;64.71;100558.09;689140;28;67385;-63
2021/07/26 00:07:00;;;;;;;17.42;13.73;;;;;;;24.08;64.47;100556.19;690862;28;46406;-62
2021/07/26 00:07:21;;;;;;;16.80;14.23;;;;;;;24.07;64.72;100562.78;691633;28;10799;-63
2021/07/26 00:07:42;;;;;;;16.70;13.63;;;;;;;24.06;64.63;100556.44;691579;28;19801;-62
2021/07/26 00:08:05;;;;;;;18.80;14.32;;;;;;;24.06;64.35;100556.44;691965;28;22503;-63
2021/07/26 00:08:26;;;;;;;16.60;14.00;;;;;;;24.06;64.48;100563.88;689590;28;68364;-62
2021/07/26 00:08:47;;;;;;;16.90;13.60;;;;;;;24.03;64.41;100562.50;691768;28;1064;-63
2021/07/26 00:09:08;;;;;;;19.05;14.40;;;;;;;24.04;64.52;100563.31;692405;28;3034;-63
2021/07/26 00:09:32;;;;;;;18.40;14.05;;;;;;;24.05;64.84;100562.22;691602;28;10864;-62
2021/07/26 00:09:54;;;;;;;17.88;13.60;;;;;;;24.03;64.65;100559.75;689290;28;85893;-62
2021/07/26 00:10:16;;;;;;;15.82;14.10;;;;;;;24.05;64.68;100559.47;692638;28;45166;-63
2021/07/26 00:10:38;;;;;;;18.77;14.23;;;;;;;24.04;64.66;100558.63;692171;28;44153;-63
2021/07/26 00:11:00;;;;;;;15.93;13.48;;;;;;;24.03;64.68;100562.50;693627;28;22545;-61
2021/07/26 00:11:22;;;;;;;15.90;13.57;;;;;;;24.03;65.00;100557.00;691554;28;67658;-62
2021/07/26 00:11:43;;;;;;;16.83;13.48;;;;;;;24.05;64.92;100571.31;692605;28;70018;-63
2021/07/26 00:12:05;;;;;;;17.83;14.00;;;;;;;24.06;64.96;100563.88;692497;28;43717;-62
2021/07/26 00:12:27;;;;;;;17.00;14.07;;;;;;;24.06;64.83;100564.72;689221;28;69710;-62
2021/07/26 00:12:48;;;;;;;17.45;14.05;;;;;;;24.06;65.24;100566.63;691262;28;20850;-62
2021/07/26 00:13:10;;;;;;;16.17;13.32;;;;;;;24.05;65.01;100568.56;691825;28;22477;-62
2021/07/26 00:13:31;;;;;;;15.93;13.43;;;;;;;24.04;65.10;100564.13;690609;28;45307;-62
2021/07/26 00:13:52;;;;;;;17.00;13.55;;;;;;;24.05;64.99;100553.97;691260;28;22360;-63
2021/07/26 00:14:13;;;;;;;17.08;14.05;;;;;;;24.03;65.05;100565.25;691310;28;21499;-62
2021/07/26 00:14:35;;;;;;;16.02;13.73;;;;;;;24.03;64.93;100564.44;690866;28;22386;-62
2021/07/26 00:14:56;;;;;;;15.95;13.70;;;;;;;24.03;65.24;100561.69;690247;28;44372;-64
2021/07/26 00:15:17;;;;;;;15.65;13.95;;;;;;;24.02;65.41;100560.00;691265;28;22422;-63
2021/07/26 00:15:38;;;;;;;15.60;13.82;;;;;;;24.01;65.08;100561.97;691482;28;22398;-63
2021/07/26 00:16:00;;;;;;;18.33;14.02;;;;;;;24.00;65.41;100565.00;691968;28;1110;-63
2021/07/26 00:16:22;;;;;;;19.52;13.75;;;;;;;24.00;65.32;100562.22;690304;28;34916;-62
2021/07/26 00:16:43;;;;;;;16.80;13.45;;;;;;;23.99;65.54;100563.31;690844;28;34905;-62
2021/07/26 00:17:04;;;;;;;15.20;13.30;;;;;;;23.99;65.50;100561.38;693434;28;21530;-63
2021/07/26 00:17:25;;;;;;;15.52;13.93;;;;;;;23.97;65.32;100568.28;693801;28;24868;-62
2021/07/26 00:17:46;;;;;;;17.80;14.60;;;;;;;23.96;65.42;100561.09;694649;28;5423;-63
2021/07/26 00:18:08;;;;;;;22.13;14.65;;;;;;;23.96;65.49;100566.63;693156;28;23826;-63
2021/07/26 00:18:30;;;;;;;21.35;14.88;;;;;;;23.94;65.38;100564.13;692811;28;46336;-62
2021/07/26 00:18:51;;;;;;;17.05;14.05;;;;;;;23.93;65.32;100559.69;693960;28;9718;-62
2021/07/26 00:19:12;;;;;;;17.40;13.65;;;;;;;23.93;65.56;100559.69;691792;28;938;-62
2021/07/26 00:19:34;;;;;;;16.27;13.52;;;;;;;23.92;65.06;100567.16;690933;28;21250;-62
2021/07/26 00:19:55;;;;;;;15.32;13.73;;;;;;;23.92;65.45;100569.09;691150;28;31165;-62
2021/07/26 00:20:16;;;;;;;17.45;14.07;;;;;;;23.90;65.49;100561.09;691189;28;20706;-62
2021/07/26 00:20:37;;;;;;;15.43;13.77;;;;;;;23.90;65.22;100558.34;691374;28;23544;-62
2021/07/26 00:21:00;;;;;;;16.85;14.25;;;;;;;23.89;65.49;100555.84;691805;28;8222;-64
2021/07/26 00:21:23;;;;;;;17.10;14.52;;;;;;;23.89;65.41;100558.59;689001;28;83057;-62
2021/07/26 00:21:44;;;;;;;16.77;14.13;;;;;;;23.90;65.15;100557.47;690646;28;44393;-62
2021/07/26 00:22:05;;;;;;;17.55;14.45;;;;;;;23.90;65.63;100557.47;690820;28;18291;-62
2021/07/26 00:22:27;;;;;;;17.33;14.30;;;;;;;23.89;65.15;100562.19;691120;28;22430;-62
2021/07/26 00:22:48;;;;;;;16.50;14.35;;;;;;;23.89;65.15;100562.19;689484;28;46365;-62
2021/07/26 00:23:09;;;;;;;16.70;14.27;;;;;;;23.88;65.51;100554.19;690662;28;21529;-63
2021/07/26 00:23:30;;;;;;;16.90;14.27;;;;;;;23.88;65.26;100566.03;691146;28;22439;-63
2021/07/26 00:23:52;;;;;;;16.58;13.85;;;;;;;23.88;65.32;100555.00;691308;28;22517;-62
2021/07/26 00:24:13;;;;;;;18.10;14.38;;;;;;;23.88;65.60;100557.75;690453;28;45282;-62
2021/07/26 00:24:34;;;;;;;20.02;14.65;;;;;;;23.88;65.61;100563.28;690401;28;23467;-63
2021/07/26 00:24:56;;;;;;;19.00;14.02;;;;;;;23.87;65.39;100550.59;691060;28;22324;-62
2021/07/26 00:25:17;;;;;;;16.40;13.53;;;;;;;23.88;65.49;100559.69;690169;28;46383;-64
2021/07/26 00:25:39;;;;;;;15.93;13.80;;;;;;;23.88;65.33;100560.50;690890;28;37882;-64
2021/07/26 00:26:00;;;;;;;19.13;14.10;;;;;;;23.88;65.76;100551.41;691452;28;12994;-62
2021/07/26 00:26:21;;;;;;;16.95;13.88;;;;;;;23.88;65.63;100555.00;690669;28;21674;-63
2021/07/26 00:26:42;;;;;;;17.02;14.50;;;;;;;23.88;65.89;100551.41;691302;28;22411;-63
2021/07/26 00:27:05;;;;;;;16.85;13.95;;;;;;;23.90;65.33;100555.56;691349;28;23453;-63
2021/07/26 00:27:27;;;;;;;16.55;13.90;;;;;;;23.89;65.40;100555.84;691696;28;884;-63
2021/07/26 00:27:49;;;;;;;18.02;14.23;;;;;;;23.90;65.56;100558.34;691141;28;1704;-63
2021/07/26 00:28:10;;;;;;;16.85;14.10;;;;;;;23.89;65.83;100550.34;690940;28;23567;-62
2021/07/26 00:28:32;;;;;;;15.18;13.55;;;;;;;23.90;65.44;100555.56;691842;28;6486;-62
2021/07/26 00:28:54;;;;;;;17.30;13.48;;;;;;;23.91;65.63;100556.41;690947;28;36490;-63
2021/07/26 00:29:15;;;;;;;17.23;13.73;;;;;;;23.91;65.59;100551.69;690438;28;41212;-62
2021/07/26 00:29:36;;;;;;;17.23;13.63;;;;;;;23.92;65.72;100549.78;690777;28;23015;-62
2021/07/26 00:29:58;;;;;;;17.92;14.15;;;;;;;23.91;65.57;100553.63;691405;28;23525;-62
2021/07/26 00:30:19;;;;;;;17.80;13.90;;;;;;;23.92;65.83;100558.06;690456;28;44369;-63
2021/07/26 00:30:40;;;;;;;17.98;14.27;;;;;;;23.92;65.80;100552.53;691205;28;23583;-63
2021/07/26 00:31:01;;;;;;;18.10;14.30;;;;;;;23.92;65.55;100555.31;691665;28;11600;-62
2021/07/26 00:31:23;;;;;;;16.52;14.02;;;;;;;23.92;65.80;100558.06;690983;28;1960;-62
2021/07/26 00:31:45;;;;;;;15.32;13.57;;;;;;;23.91;65.34;100554.47;694138;28;1881;-62
2021/07/26 00:32:07;;;;;;;15.40;13.75;;;;;;;23.91;65.30;100551.69;693645;28;34492;-63
2021/07/26 00:32:29;;;;;;;16.63;14.15;;;;;;;23.91;65.48;100548.94;692543;28;23450;-63
2021/07/26 00:32:51;;;;;;;18.70;13.75;;;;;;;23.92;65.61;100552.53;690605;28;44691;-63
2021/07/26 00:34:02;;;;;;;18.58;14.07;;;;;;;23.91;65.84;100546.19;690161;28;44518;-63
2021/07/26 00:34:25;;;;;;;17.25;14.32;;;;;;;23.91;65.78;100554.47;685287;28;135960;-63
2021/07/26 00:34:46;;;;;;;17.08;14.43;;;;;;;23.91;65.37;100539.84;690136;28;44045;-62
2021/07/26 00:35:08;;;;;;;21.33;15.55;;;;;;;23.91;65.46;100548.94;690358;28;45232;-62
2021/07/26 00:35:29;;;;;;;19.40;14.43;;;;;;;23.91;65.56;100546.19;690137;28;46274;-64
2021/07/26 00:35:50;;;;;;;17.38;14.45;;;;;;;23.90;65.65;100547.31;690589;28;21073;-62
2021/07/26 00:36:11;;;;;;;16.13;13.95;;;;;;;23.91;65.40;100540.66;690458;28;22495;-63
2021/07/26 00:36:35;;;;;;;17.80;14.52;;;;;;;23.91;65.49;100543.41;690812;28;21535;-63
2021/07/26 00:36:58;;;;;;;17.88;14.88;;;;;;;23.92;65.44;100542.34;690937;28;40996;-63
2021/07/26 00:37:19;;;;;;;17.80;14.60;;;;;;;23.93;65.23;100546.75;689821;28;69469;-62
2021/07/26 00:37:40;;;;;;;16.40;14.35;;;;;;;23.93;65.44;100545.91;689631;28;46315;-63
2021/07/26 00:38:01;;;;;;;17.20;14.20;;;;;;;23.95;65.11;100542.88;691000;28;22455;-63
2021/07/26 00:38:22;;;;;;;17.70;14.57;;;;;;;23.94;65.18;100539.31;691197;28;23995;-63
2021/07/26 00:38:43;;;;;;;17.23;14.32;;;;;;;23.95;65.12;100545.63;691306;28;17460;-63
2021/07/26 00:39:06;;;;;;;16.30;13.93;;;;;;;23.95;64.91;100540.97;691209;28;23553;-63
2021/07/26 00:39:29;;;;;;;17.33;14.30;;;;;;;23.95;65.07;100551.16;689863;28;70547;-62
2021/07/26 00:39:50;;;;;;;16.38;14.00;;;;;;;23.95;65.42;100542.88;690355;28;42884;-62
2021/07/26 00:40:12;;;;;;;17.88;14.13;;;;;;;23.94;65.27;100547.56;691246;28;14599;-62
2021/07/26 00:40:34;;;;;;;20.13;14.25;;;;;;;23.94;65.05;100547.56;691811;28;14913;-63
2021/07/26 00:40:55;;;;;;;16.73;14.68;;;;;;;23.95;64.99;100553.91;691426;28;22403;-63
2021/07/26 00:41:18;;;;;;;17.83;14.57;;;;;;;23.96;64.94;100556.41;691908;28;21503;-63
2021/07/26 00:41:40;;;;;;;17.45;14.60;;;;;;;23.96;64.96;100548.13;692935;28;44441;-63
2021/07/26 00:42:02;;;;;;;16.95;14.77;;;;;;;23.95;64.66;100552.00;693087;28;31795;-63
2021/07/26 00:42:23;;;;;;;17.80;15.07;;;;;;;23.96;65.05;100550.88;692811;28;32216;-63
2021/07/26 00:42:44;;;;;;;17.35;15.05;;;;;;;23.98;64.88;100553.38;692573;28;23979;-63
2021/07/26 00:43:05;;;;;;;17.23;14.38;;;;;;;23.98;64.88;100550.63;693549;28;23494;-63
2021/07/26 00:43:26;;;;;;;18.08;14.68;;;;;;;23.99;64.92;100552.28;691437;28;23512;-62
2021/07/26 00:43:47;;;;;;;18.45;14.38;;;;;;;23.99;64.73;100552.28;691489;28;14777;-64
2021/07/26 00:44:10;;;;;;;16.70;14.35;;;;;;;23.98;64.89;100551.47;691124;28;899;-62
2021/07/26 00:44:32;;;;;;;17.10;13.85;;;;;;;23.99;64.58;100557.81;690615;28;32466;-62
2021/07/26 00:44:54;;;;;;;20.02;14.45;;;;;;;23.99;65.02;100553.09;690581;28;28193;-63
2021/07/26 00:45:15;;;;;;;17.40;14.90;;;;;;;23.98;64.89;100545.94;690648;28;36203;-63
2021/07/26 00:45:36;;;;;;;17.67;15.02;;;;;;;23.99;64.71;100550.34;691008;28;21516;-63
2021/07/26 00:45:57;;;;;;;17.40;14.63;;;;;;;23.99;64.71;100558.63;691569;28;11864;-63
2021/07/26 00:46:18;;;;;;;18.60;14.80;;;;;;;23.99;64.67;100552.28;690529;28;17316;-63
2021/07/26 00:46:40;;;;;;;17.27;14.95;;;;;;;23.98;64.84;100551.47;690281;28;22476;-63
2021/07/26 00:47:02;;;;;;;18.65;15.02;;;;;;;23.98;64.52;100556.97;691643;28;19704;-63
2021/07/26 00:47:23;;;;;;;16.83;14.80;;;;;;;23.97;64.67;100547.03;689995;28;41279;-63
2021/07/26 00:47:47;;;;;;;19.35;14.68;;;;;;;23.98;64.80;100547.84;691064;28;38101;-63
2021/07/26 00:48:08;;;;;;;18.92;14.60;;;;;;;23.97;64.65;100558.06;691120;28;23421;-62
2021/07/26 00:48:29;;;;;;;16.65;14.70;;;;;;;23.97;64.75;100547.03;690740;28;10872;-63
2021/07/26 00:48:52;;;;;;;18.23;14.73;;;;;;;23.97;64.60;100558.06;691485;28;9814;-63
2021/07/26 00:49:15;;;;;;;19.08;14.30;;;;;;;23.98;64.51;100547.84;690701;28;43120;-63
2021/07/26 00:49:37;;;;;;;17.90;14.65;;;;;;;23.97;64.42;100555.31;691616;28;68771;-62
2021/07/26 00:49:58;;;;;;;18.05;14.32;;;;;;;23.97;64.68;100558.06;693015;28;46287;-63
2021/07/26 00:50:19;;;;;;;19.08;14.50;;;;;;;23.96;64.86;100555.59;692726;28;23536;-63
2021/07/26 00:50:41;;;;;;;17.38;14.38;;;;;;;23.97;64.85;100557.25;691280;28;23490;-62
2021/07/26 00:51:02;;;;;;;18.80;14.45;;;;;;;23.97;64.77;100551.75;689433;28;43150;-62
2021/07/26 00:51:23;;;;;;;16.80;14.23;;;;;;;23.97;64.76;100555.31;691115;28;18462;-63
2021/07/26 00:51:47;;;;;;;17.02;14.55;;;;;;;23.96;64.64;100556.41;691180;28;13948;-62
2021/07/26 00:52:09;;;;;;;17.98;14.52;;;;;;;23.97;64.54;100554.50;688701;28;92351;-62
2021/07/26 00:52:30;;;;;;;17.98;14.30;;;;;;;23.96;64.52;100552.81;689713;28;46726;-62
2021/07/26 00:52:51;;;;;;;17.63;14.75;;;;;;;23.96;64.90;100553.66;690574;28;22415;-63
2021/07/26 00:53:12;;;;;;;16.60;14.70;;;;;;;23.95;64.87;100553.91;691282;28;17742;-62
2021/07/26 00:53:34;;;;;;;17.58;15.15;;;;;;;23.94;64.48;100553.09;690888;28;20177;-63
2021/07/26 00:53:56;;;;;;;18.98;15.25;;;;;;;23.93;64.72;100552.28;689353;28;36953;-63
2021/07/26 00:54:20;;;;;;;20.30;14.73;;;;;;;23.93;64.81;100552.28;689951;28;42888;-63
2021/07/26 00:54:41;;;;;;;19.03;15.20;;;;;;;23.94;64.59;100553.09;688859;28;90688;-63
2021/07/26 00:55:03;;;;;;;16.63;14.45;;;;;;;23.93;64.76;100556.94;689679;28;46422;-63
2021/07/26 00:55:24;;;;;;;16.27;14.27;;;;;;;23.92;64.62;100558.88;689832;28;44515;-61
2021/07/26 00:55:45;;;;;;;18.40;15.07;;;;;;;23.92;64.50;100552.53;691522;28;13305;-63
2021/07/26 00:56:07;;;;;;;18.88;14.68;;;;;;;23.92;64.91;100558.06;690983;28;22400;-62
2021/07/26 00:56:29;;;;;;;18.65;14.90;;;;;;;23.91;64.79;100559.16;690587;28;39851;-62
2021/07/26 00:56:51;;;;;;;18.00;15.05;;;;;;;23.91;64.61;100561.91;691053;28;24337;-64
2021/07/26 00:57:13;;;;;;;19.02;15.45;;;;;;;23.90;64.88;100555.56;690203;28;47539;-63
2021/07/26 00:57:34;;;;;;;19.05;14.77;;;;;;;23.90;64.92;100551.97;691348;28;20989;-63
2021/07/26 00:57:55;;;;;;;21.75;14.95;;;;;;;23.89;64.93;100555.84;691345;28;16585;-63
2021/07/26 00:58:17;;;;;;;18.77;15.05;;;;;;;23.89;64.65;100555.84;691978;28;1538;-63
2021/07/26 00:58:38;;;;;;;17.80;14.57;;;;;;;23.86;65.16;100548.94;690730;28;23413;-64
2021/07/26 00:58:59;;;;;;;19.52;15.07;;;;;;;23.86;64.97;100550.88;691258;28;21018;-63
2021/07/26 00:59:21;;;;;;;20.17;15.77;;;;;;;23.87;64.71;100560.78;689706;28;44054;-62
2021/07/26 00:59:42;;;;;;;20.37;15.20;;;;;;;23.85;65.08;100558.28;689043;28;64756;-62
2021/07/26 01:00:05;;;;;;;18.52;14.82;;;;;;;23.84;64.98;100551.13;690524;28;45232;-63
2021/07/26 01:00:30;;;;;;;18.40;14.70;;;;;;;23.85;64.78;100550.03;690046;28;60920;-63
2021/07/26 01:00:51;;;;;;;18.52;15.20;;;;;;;23.84;64.96;100551.13;690979;28;22463;-62
2021/07/26 01:01:13;;;;;;;19.30;15.35;;;;;;;23.85;64.69;100551.97;690076;28;14708;-62
2021/07/26 01:01:35;;;;;;;20.38;15.25;;;;;;;23.84;64.67;100551.13;690474;28;44683;-63
2021/07/26 01:01:57;;;;;;;18.77;14.68;;;;;;;23.84;64.84;100545.63;690635;28;47168;-63
2021/07/26 01:02:18;;;;;;;18.83;15.20;;;;;;;23.84;64.83;100547.53;690490;28;44383;-64
2021/07/26 01:02:39;;;;;;;18.15;15.30;;;;;;;23.83;65.10;100545.88;691045;28;23416;-62
2021/07/26 01:03:01;;;;;;;18.75;15.23;;;;;;;23.82;65.04;100545.00;690477;28;22472;-62
2021/07/26 01:03:22;;;;;;;18.73;15.30;;;;;;;23.83;64.90;100545.88;691057;28;27643;-63
2021/07/26 01:03:44;;;;;;;17.40;15.45;;;;;;;23.83;64.95;100545.88;691265;28;23466;-64
2021/07/26 01:04:05;;;;;;;19.35;15.45;;;;;;;23.82;64.91;100550.53;690598;28;44364;-63
2021/07/26 01:04:27;;;;;;;19.17;15.52;;;;;;;23.82;65.00;100552.47;690567;28;22409;-63
2021/07/26 01:04:48;;;;;;;18.92;15.23;;;;;;;23.80;65.13;100549.97;690476;28;44371;-63
2021/07/26 01:05:10;;;;;;;16.58;14.88;;;;;;;23.80;65.04;100543.66;691312;28;931;-63
2021/07/26 01:05:31;;;;;;;18.10;15.82;;;;;;;23.80;64.95;100546.41;690104;28;46361;-62
2021/07/26 01:05:52;;;;;;;20.77;15.73;;;;;;;23.79;65.14;100540.03;691321;28;19241;-63
2021/07/26 01:06:14;;;;;;;20.10;15.10;;;;;;;23.78;65.09;100538.41;691409;28;13398;-63
2021/07/26 01:06:36;;;;;;;18.45;15.43;;;;;;;23.78;65.01;100546.66;691083;28;22408;-62
2021/07/26 01:06:58;;;;;;;17.92;15.18;;;;;;;23.79;64.85;100553.00;690164;28;44243;-63
2021/07/26 01:07:19;;;;;;;19.00;15.40;;;;;;;23.77;65.01;100547.75;690552;28;51050;-62
2021/07/26 01:07:40;;;;;;;20.45;15.27;;;;;;;23.78;65.00;100556.84;691254;28;21273;-62
2021/07/26 01:08:02;;;;;;;19.00;15.23;;;;;;;23.77;65.21;100550.53;691478;28;9275;-63
2021/07/26 01:08:24;;;;;;;18.27;15.18;;;;;;;23.77;64.99;100552.47;693754;28;16295;-63
2021/07/26 01:08:45;;;;;;;18.42;15.07;;;;;;;23.76;65.23;100551.59;692706;28;45303;-62
2021/07/26 01:09:08;;;;;;;19.58;15.50;;;;;;;23.75;64.81;100545.28;694626;28;1671;-62
2021/07/26 01:09:33;;;;;;;19.45;15.25;;;;;;;23.76;65.01;100554.38;693529;28;15339;-63
2021/07/26 01:09:54;;;;;;;17.58;15.63;;;;;;;23.75;65.05;100548.03;692654;28;46572;-62
2021/07/26 01:10:16;;;;;;;17.48;15.05;;;;;;;23.77;65.06;100547.75;693236;28;919;-63
2021/07/26 01:10:37;;;;;;;17.80;15.30;;;;;;;23.78;65.12;100548.59;689984;28;21472;-63
2021/07/26 01:10:58;;;;;;;20.02;16.08;;;;;;;23.77;65.23;100547.75;691498;28;8959;-63
2021/07/26 01:11:19;;;;;;;20.45;16.10;;;;;;;23.77;64.88;100550.53;690334;28;12861;-62
2021/07/26 01:11:43;;;;;;;20.38;16.15;;;;;;;23.78;65.22;100549.44;691326;28;1140;-63
2021/07/26 01:12:04;;;;;;;18.60;15.07;;;;;;;23.77;65.04;100555.22;690755;28;46381;-63
2021/07/26 01:12:26;;;;;;;19.42;15.43;;;;;;;23.77;64.79;100556.03;689831;28;46292;-63
2021/07/26 01:12:47;;;;;;;18.67;15.63;;;;;;;23.77;64.98;100552.47;690077;28;46424;-62
2021/07/26 01:13:08;;;;;;;18.38;14.90;;;;;;;23.77;64.92;100556.03;690674;28;46428;-62
2021/07/26 01:13:31;;;;;;;18.88;15.57;;;;;;;23.77;65.31;100544.19;691836;28;923;-63
2021/07/26 01:13:52;;;;;;;18.17;15.48;;;;;;;23.77;65.20;100552.47;690201;28;46317;-63
2021/07/26 01:14:15;;;;;;;19.50;16.13;;;;;;;23.75;64.95;100549.97;693366;28;23585;-62
2021/07/26 01:14:47;;;;;;;17.65;15.23;;;;;;;23.75;64.87;100547.22;691873;28;84098;-62
2021/07/26 01:15:09;;;;;;;16.80;15.00;;;;;;;23.74;65.16;100551.88;691660;28;70130;-63
2021/07/26 01:15:30;;;;;;;18.42;15.45;;;;;;;23.73;65.06;100550.25;692617;28;46400;-63
2021/07/26 01:15:52;;;;;;;18.42;15.10;;;;;;;23.73;64.85;100552.16;694275;28;918;-63
2021/07/26 01:16:14;;;;;;;20.00;15.75;;;;;;;23.70;65.11;100548.03;691319;28;11380;-63
2021/07/26 01:16:36;;;;;;;20.65;16.08;;;;;;;23.70;64.88;100552.72;690388;28;43595;-62
2021/07/26 01:16:57;;;;;;;18.38;15.52;;;;;;;23.69;64.96;100546.34;689978;28;46516;-62
2021/07/26 01:18:14;;;;;;;19.75;15.20;;;;;;;23.69;65.05;100553.81;690463;28;21287;-62
2021/07/26 01:18:37;;;;;;;19.00;15.63;;;;;;;23.68;65.20;100552.97;680018;28;136975;-63
2021/07/26 01:19:00;;;;;;;18.67;15.52;;;;;;;23.67;65.07;100554.06;690650;28;44568;-63
2021/07/26 01:19:21;;;;;;;19.60;15.50;;;;;;;23.68;65.50;100554.91;687925;28;93101;-62
2021/07/26 01:19:43;;;;;;;18.05;15.20;;;;;;;23.66;65.59;100549.66;690948;28;39245;-64
2021/07/26 01:20:08;;;;;;;18.17;14.90;;;;;;;23.67;65.37;100556.81;691393;28;982;-62
2021/07/26 01:20:29;;;;;;;18.48;14.90;;;;;;;23.67;65.22;100559.59;688853;28;90489;-63
2021/07/26 01:20:52;;;;;;;19.00;15.18;;;;;;;23.68;65.38;100557.66;691394;28;901;-62
2021/07/26 01:21:15;;;;;;;18.02;15.50;;;;;;;23.67;65.50;100559.59;691066;28;2007;-62
2021/07/26 01:21:37;;;;;;;19.33;15.73;;;;;;;23.67;65.48;100554.06;689468;28;69114;-63
2021/07/26 01:21:58;;;;;;;18.88;15.43;;;;;;;23.67;65.25;100553.25;691082;28;31777;-63
2021/07/26 01:22:20;;;;;;;19.42;15.02;;;;;;;23.67;65.38;100548.56;691013;28;21518;-62
2021/07/26 01:22:41;;;;;;;17.98;14.88;;;;;;;23.68;65.38;100552.97;691384;28;4095;-62
2021/07/26 01:23:02;;;;;;;17.70;15.40;;;;;;;23.67;65.30;100551.31;690290;28;47546;-63
2021/07/26 01:23:26;;;;;;;18.48;15.73;;;;;;;23.67;65.37;100556.81;691826;28;958;-62
2021/07/26 01:23:50;;;;;;;17.33;15.40;;;;;;;23.67;65.03;100554.06;688931;28;91350;-63
2021/07/26 01:24:12;;;;;;;18.05;15.23;;;;;;;23.68;65.51;100552.13;688368;28;106031;-62
2021/07/26 01:24:34;;;;;;;18.90;15.43;;;;;;;23.67;65.45;100556.81;691274;28;12453;-63
2021/07/26 01:24:55;;;;;;;18.23;15.60;;;;;;;23.67;65.50;100556.81;690075;28;46307;-63
2021/07/26 01:25:16;;;;;;;19.05;15.75;;;;;;;23.68;65.33;100560.41;691064;28;20742;-63
2021/07/26 01:25:37;;;;;;;18.70;15.02;;;;;;;23.67;65.12;100556.81;691043;28;23556;-62
2021/07/26 01:25:59;;;;;;;20.52;15.38;;;;;;;23.67;65.50;100548.56;690963;28;23276;-62
2021/07/26 01:26:22;;;;;;;19.42;15.25;;;;;;;23.66;64.99;100552.41;689985;28;46702;-63
2021/07/26 01:26:44;;;;;;;20.60;15.65;;;;;;;23.67;65.37;100556.00;689013;28;92077;-62
2021/07/26 01:27:05;;;;;;;18.35;15.18;;;;;;;23.65;65.41;100550.75;691229;28;22391;-63
2021/07/26 01:27:26;;;;;;;18.95;15.68;;;;;;;23.65;65.26;100545.25;690322;28;46363;-63
2021/07/26 01:27:47;;;;;;;18.27;15.55;;;;;;;23.65;65.14;100549.91;691358;28;1579;-63
2021/07/26 01:28:12;;;;;;;18.33;16.17;;;;;;;23.63;65.29;100552.94;690255;28;22173;-63
2021/07/26 01:28:35;;;;;;;18.60;15.70;;;;;;;23.63;65.38;100550.19;689615;28;85049;-64
2021/07/26 01:28:58;;;;;;;18.73;15.50;;;;;;;23.63;65.16;100549.38;690095;28;67632;-62
2021/07/26 01:29:21;;;;;;;20.08;15.52;;;;;;;23.62;65.61;100548.53;690740;28;34531;-61
2021/07/26 01:29:49;;;;;;;18.50;15.60;;;;;;;23.63;65.23;100554.88;690088;28;61519;-64
2021/07/26 01:30:11;;;;;;;19.33;15.10;;;;;;;23.63;65.20;100547.44;690706;28;19498;-63
2021/07/26 01:30:33;;;;;;;19.60;15.48;;;;;;;23.64;65.40;100554.59;690564;28;35258;-63
2021/07/26 01:30:55;;;;;;;19.85;15.70;;;;;;;23.63;65.34;100539.16;689450;28;47326;-63
2021/07/26 01:31:16;;;;;;;19.10;15.52;;;;;;;23.65;65.69;100555.44;689500;28;39550;-62
2021/07/26 01:31:39;;;;;;;18.00;15.63;;;;;;;23.65;65.60;100549.91;690896;28;23543;-62
2021/07/26 01:32:00;;;;;;;18.40;16.02;;;;;;;23.65;65.26;100544.41;692074;28;36445;-62
2021/07/26 01:32:21;;;;;;;17.83;15.35;;;;;;;23.66;65.59;100546.06;692568;28;44476;-63
2021/07/26 01:32:42;;;;;;;19.80;15.70;;;;;;;23.66;65.48;100552.41;692491;28;22479;-62
2021/07/26 01:33:07;;;;;;;21.20;15.68;;;;;;;23.66;65.58;100551.59;690677;28;21181;-63
2021/07/26 01:33:29;;;;;;;18.80;16.05;;;;;;;23.67;65.56;100553.25;690370;28;36305;-63
2021/07/26 01:33:51;;;;;;;18.88;15.70;;;;;;;23.67;65.51;100548.56;690834;28;24559;-62
2021/07/26 01:34:12;;;;;;;18.77;15.30;;;;;;;23.67;65.46;100545.81;689237;28;65350;-63
2021/07/26 01:34:34;;;;;;;19.30;16.05;;;;;;;23.67;65.40;100544.97;689964;28;23527;-62
2021/07/26 01:34:55;;;;;;;18.52;15.57;;;;;;;23.67;65.39;100547.75;691225;28;1038;-63
2021/07/26 01:35:18;;;;;;;19.77;15.82;;;;;;;23.68;65.40;100555.75;691495;28;10424;-63
2021/07/26 01:35:39;;;;;;;19.15;16.38;;;;;;;23.68;65.39;100552.97;690049;28;41347;-62
2021/07/26 01:36:01;;;;;;;18.67;16.02;;;;;;;23.68;65.43;100552.13;689474;28;43687;-62
2021/07/26 01:36:24;;;;;;;18.77;15.30;;;;;;;23.69;65.39;100553.81;691525;28;1154;-63
2021/07/26 01:36:45;;;;;;;18.55;15.48;;;;;;;23.69;65.22;100556.56;690337;28;33383;-62
2021/07/26 01:37:06;;;;;;;20.33;15.88;;;;;;;23.70;65.28;100556.28;691120;28;15219;-63
2021/07/26 01:37:27;;;;;;;19.52;15.98;;;;;;;23.70;65.47;100552.72;690904;28;24516;-63
2021/07/26 01:37:48;;;;;;;22.92;16.05;;;;;;;23.70;65.34;100550.78;691002;28;22372;-62
2021/07/26 01:38:11;;;;;;;19.83;15.70;;;;;;;23.73;65.01;100555.75;690419;28;24418;-63
2021/07/26 01:38:32;;;;;;;19.15;15.27;;;;;;;23.73;65.17;100555.75;689919;28;70282;-62
2021/07/26 01:38:53;;;;;;;18.88;15.18;;;;;;;23.72;65.14;100559.59;691620;28;918;-63
2021/07/26 01:39:15;;;;;;;19.17;15.88;;;;;;;23.72;65.19;100559.59;691333;28;15369;-63
2021/07/26 01:39:36;;;;;;;20.55;15.80;;;;;;;23.72;65.36;100558.78;690086;28;38580;-62
2021/07/26 01:39:57;;;;;;;18.15;15.65;;;;;;;23.72;65.13;100553.25;691088;28;23480;-63
2021/07/26 01:40:19;;;;;;;18.58;15.23;;;;;;;23.70;65.33;100550.78;690288;28;23435;-63
2021/07/26 01:40:41;;;;;;;18.90;15.75;;;;;;;23.70;65.25;100559.06;691832;28;1628;-63
2021/07/26 01:41:06;;;;;;;17.60;15.02;;;;;;;23.68;65.53;100555.75;690714;28;23562;-62
2021/07/26 01:41:34;;;;;;;19.95;15.90;;;;;;;23.68;65.41;100558.50;687612;28;115002;-63
2021/07/26 01:41:56;;;;;;;19.80;15.73;;;;;;;23.67;65.59;100559.59;687675;28;122007;-63
2021/07/26 01:42:18;;;;;;;19.63;15.68;;;;;;;23.67;65.29;100559.59;690152;28;46348;-62